createdAt,value
2023-04-27T00:02:20.332Z,97484.19
2023-04-27T00:04:48.042Z,97485.03
2023-04-27T00:07:15.359Z,97483.25
2023-04-27T00:09:42.618Z,97480.16
2023-04-27T00:12:09.778Z,97472.56
2023-04-27T00:14:37.006Z,97476.69
2023-04-27T00:17:04.272Z,97472.50
2023-04-27T00:19:31.521Z,97475.63
2023-04-27T00:22:00.340Z,97479.03
2023-04-27T00:24:27.721Z,97468.63
2023-04-27T00:26:54.942Z,97476.56
2023-04-27T00:29:22.166Z,97467.66
2023-04-27T00:31:49.476Z,97471.31
2023-04-27T00:34:16.639Z,97476.25
2023-04-27T00:36:43.891Z,97469.59
2023-04-27T00:39:13.416Z,97474.34
2023-04-27T00:41:41.179Z,97483.09
2023-04-27T00:44:08.410Z,97479.97
2023-04-27T00:46:36.288Z,97476.69
2023-04-27T00:49:04.623Z,97477.81
2023-04-27T00:51:32.197Z,97480.31
2023-04-27T00:54:01.049Z,97486.72
2023-04-27T00:56:28.740Z,97491.28
2023-04-27T00:58:56.299Z,97488.78
2023-04-27T01:01:24.285Z,97484.94
2023-04-27T01:03:51.790Z,97486.94
2023-04-27T01:06:19.153Z,97489.16
2023-04-27T01:08:47.067Z,97494.09
2023-04-27T01:11:14.262Z,97486.00
2023-04-27T01:13:41.661Z,97496.97
2023-04-27T01:16:08.904Z,97495.94
2023-04-27T01:18:40.817Z,97492.03
2023-04-27T01:23:53.750Z,97490.50
2023-04-27T01:26:21.316Z,97491.41
2023-04-27T01:28:49.022Z,97500.31
2023-04-27T01:31:16.632Z,97500.91
2023-04-27T01:33:44.094Z,97502.34
2023-04-27T01:36:11.833Z,97498.72
2023-04-27T01:38:39.230Z,97499.63
2023-04-27T01:41:09.107Z,97499.75
2023-04-27T01:43:39.864Z,97503.09
2023-04-27T01:46:07.849Z,97496.41
2023-04-27T01:48:36.071Z,97500.72
2023-04-27T01:51:03.977Z,97502.56
2023-04-27T01:53:31.642Z,97494.56
2023-04-27T01:56:03.637Z,97496.41
2023-04-27T01:58:33.527Z,97501.41
2023-04-27T02:01:00.758Z,97499.59
2023-04-27T02:03:29.716Z,97501.66
2023-04-27T02:05:57.092Z,97502.56
2023-04-27T02:08:24.230Z,97509.63
2023-04-27T02:10:51.516Z,97511.09
2023-04-27T02:13:18.804Z,97500.16
2023-04-27T02:15:46.386Z,97508.78
2023-04-27T02:18:15.845Z,97506.06
2023-04-27T02:20:43.116Z,97505.59
2023-04-27T02:23:11.691Z,97499.88
2023-04-27T02:25:39.133Z,97506.59
2023-04-27T02:28:06.389Z,97506.47
2023-04-27T02:30:34.208Z,97504.16
2023-04-27T02:33:01.618Z,97502.66
2023-04-27T02:35:28.823Z,97501.63
2023-04-27T02:37:56.121Z,97498.59
2023-04-27T02:40:24.797Z,97506.31
2023-04-27T02:42:52.117Z,97504.38
2023-04-27T02:45:19.429Z,97511.66
2023-04-27T02:47:46.739Z,97504.34
2023-04-27T02:50:14.399Z,97505.19
2023-04-27T02:52:41.560Z,97500.03
2023-04-27T02:55:09.415Z,97512.31
2023-04-27T02:57:36.709Z,97506.16
2023-04-27T03:00:07.041Z,97513.81
2023-04-27T03:02:34.486Z,97508.94
2023-04-27T03:05:01.797Z,97514.28
2023-04-27T03:07:29.025Z,97517.47
2023-04-27T03:09:56.467Z,97520.91
2023-04-27T03:12:23.705Z,97520.91
2023-04-27T03:14:50.869Z,97522.72
2023-04-27T03:17:18.331Z,97522.44
2023-04-27T03:19:51.339Z,97524.59
2023-04-27T03:22:18.776Z,97519.81
2023-04-27T03:24:46.158Z,97530.28
2023-04-27T03:27:13.404Z,97527.78
2023-04-27T03:29:40.844Z,97525.22
2023-04-27T03:32:08.248Z,97532.63
2023-04-27T03:34:35.653Z,97524.13
2023-04-27T03:37:03.009Z,97535.69
2023-04-27T03:39:30.317Z,97538.63
2023-04-27T03:41:57.762Z,97540.09
2023-04-27T03:44:25.109Z,97538.06
2023-04-27T03:46:52.511Z,97541.34
2023-04-27T03:49:19.895Z,97548.88
2023-04-27T03:51:47.382Z,97544.34
2023-04-27T03:54:15.326Z,97554.16
2023-04-27T03:56:42.691Z,97546.84
2023-04-27T03:59:10.065Z,97547.88
2023-04-27T04:01:40.287Z,97549.59
2023-04-27T04:04:07.692Z,97561.19
2023-04-27T04:06:35.149Z,97553.44
2023-04-27T04:09:03.661Z,97555.25
2023-04-27T04:11:31.410Z,97557.03
2023-04-27T04:14:00.026Z,97560.25
2023-04-27T04:16:27.412Z,97559.00
2023-04-27T04:18:54.869Z,97560.44
2023-04-27T04:21:22.154Z,97562.72
2023-04-27T04:23:49.430Z,97558.91
2023-04-27T04:26:16.788Z,97564.06
2023-04-27T04:28:44.404Z,97566.31
2023-04-27T04:31:12.205Z,97567.00
2023-04-27T04:33:39.740Z,97575.25
2023-04-27T04:36:07.823Z,97566.59
2023-04-27T04:38:35.468Z,97585.34
2023-04-27T04:41:02.769Z,97584.09
2023-04-27T04:43:32.992Z,97585.69
2023-04-27T04:46:03.210Z,97588.41
2023-04-27T04:48:30.670Z,97593.25
2023-04-27T04:50:58.026Z,97588.59
2023-04-27T04:53:26.319Z,97596.47
2023-04-27T04:55:56.048Z,97592.44
2023-04-27T04:58:23.332Z,97595.22
2023-04-27T05:00:50.650Z,97591.22
2023-04-27T05:03:18.200Z,97590.44
2023-04-27T05:05:45.548Z,97599.94
2023-04-27T05:08:13.394Z,97592.75
2023-04-27T05:10:40.755Z,97605.88
2023-04-27T05:13:07.893Z,97604.72
2023-04-27T05:15:37.168Z,97603.63
2023-04-27T05:18:04.409Z,97610.84
2023-04-27T05:20:34.415Z,97608.22
2023-04-27T05:23:02.288Z,97612.53
2023-04-27T05:25:33.873Z,97611.84
2023-04-27T05:28:01.413Z,97621.38
2023-04-27T05:30:28.646Z,97618.94
2023-04-27T05:32:55.833Z,97624.44
2023-04-27T05:35:23.179Z,97624.56
2023-04-27T05:37:50.423Z,97622.63
2023-04-27T05:40:17.893Z,97631.44
2023-04-27T05:42:47.162Z,97634.81
2023-04-27T05:45:14.538Z,97635.75
2023-04-27T05:47:42.268Z,97637.63
2023-04-27T05:50:10.203Z,97643.22
2023-04-27T05:52:38.913Z,97647.41
2023-04-27T05:55:08.171Z,97644.72
2023-04-27T05:57:35.410Z,97643.69
2023-04-27T06:00:08.627Z,97654.31
2023-04-27T06:02:39.827Z,97649.53
2023-04-27T06:05:08.064Z,97646.91
2023-04-27T06:07:37.572Z,97639.00
2023-04-27T06:10:06.201Z,97642.75
2023-04-27T06:12:33.694Z,97648.06
2023-04-27T06:15:01.011Z,97648.84
2023-04-27T06:17:28.508Z,97644.34
2023-04-27T06:19:56.119Z,97653.44
2023-04-27T06:22:23.340Z,97650.63
2023-04-27T06:24:50.631Z,97642.31
2023-04-27T06:27:17.814Z,97654.69
2023-04-27T06:29:45.020Z,97652.16
2023-04-27T06:32:12.306Z,97655.34
2023-04-27T06:34:39.551Z,97659.72
2023-04-27T06:37:07.461Z,97660.47
2023-04-27T06:39:36.961Z,97666.66
2023-04-27T06:42:04.614Z,97672.34
2023-04-27T06:44:32.922Z,97669.22
2023-04-27T06:47:00.186Z,97673.59
2023-04-27T06:49:27.450Z,97670.66
2023-04-27T06:51:54.803Z,97671.84
2023-04-27T06:54:22.194Z,97676.63
2023-04-27T06:56:49.436Z,97675.28
2023-04-27T06:59:16.620Z,97675.97
2023-04-27T07:01:43.952Z,97683.25
2023-04-27T07:04:11.293Z,97679.13
2023-04-27T07:06:38.720Z,97686.63
2023-04-27T07:09:16.340Z,97682.16
2023-04-27T07:11:53.435Z,97682.53
2023-04-27T07:14:20.933Z,97684.59
2023-04-27T07:16:48.187Z,97685.56
2023-04-27T07:19:15.709Z,97685.38
2023-04-27T07:21:43.123Z,97691.09
2023-04-27T07:24:10.341Z,97690.16
2023-04-27T07:26:37.692Z,97685.09
2023-04-27T07:29:14.452Z,97699.94
2023-04-27T07:31:46.708Z,97702.94
2023-04-27T07:34:13.939Z,97699.63
2023-04-27T07:36:41.279Z,97689.38
2023-04-27T07:39:08.674Z,97693.34
2023-04-27T07:41:35.996Z,97697.25
2023-04-27T07:44:03.423Z,97702.91
2023-04-27T07:46:32.353Z,97704.38
2023-04-27T07:49:00.077Z,97693.16
2023-04-27T07:51:30.243Z,97682.09
2023-04-27T07:53:57.590Z,97684.38
2023-04-27T07:56:24.862Z,97677.34
2023-04-27T07:58:52.254Z,97678.69
2023-04-27T08:01:21.406Z,97673.31
2023-04-27T08:03:49.383Z,97676.81
2023-04-27T08:06:19.426Z,97674.44
2023-04-27T08:08:47.181Z,97675.06
2023-04-27T08:11:14.530Z,97676.03
2023-04-27T08:13:42.004Z,97668.59
2023-04-27T08:16:09.430Z,97672.28
2023-04-27T08:18:36.764Z,97671.81
2023-04-27T08:21:04.495Z,97671.31
2023-04-27T08:23:33.014Z,97675.72
2023-04-27T08:26:00.942Z,97681.31
2023-04-27T08:28:28.216Z,97688.03
2023-04-27T08:30:55.629Z,97692.22
2023-04-27T08:33:22.903Z,97689.63
2023-04-27T08:35:50.376Z,97688.97
2023-04-27T08:38:17.696Z,97686.84
2023-04-27T08:40:45.620Z,97682.53
2023-04-27T08:43:13.154Z,97684.22
2023-04-27T08:45:53.435Z,97688.91
2023-04-27T08:48:21.132Z,97688.03
2023-04-27T08:50:52.023Z,97694.00
2023-04-27T08:53:22.380Z,97698.94
2023-04-27T08:55:53.218Z,97698.56
2023-04-27T08:58:20.923Z,97690.16
2023-04-27T09:00:50.721Z,97690.41
2023-04-27T09:03:26.879Z,97698.69
2023-04-27T09:06:04.551Z,97692.91
2023-04-27T09:08:51.649Z,97697.69
2023-04-27T09:11:38.096Z,97695.78
2023-04-27T09:14:24.958Z,97685.84
2023-04-27T09:16:59.791Z,97689.22
2023-04-27T09:19:29.484Z,97685.38
2023-04-27T09:22:11.358Z,97702.56
2023-04-27T09:24:39.020Z,97717.41
2023-04-27T09:27:08.907Z,97701.03
2023-04-27T09:29:38.858Z,97702.13
2023-04-27T09:32:20.952Z,97690.94
2023-04-27T09:34:48.478Z,97697.34
2023-04-27T09:37:16.510Z,97705.09
2023-04-27T09:39:45.714Z,97704.66
2023-04-27T09:42:13.576Z,97698.81
2023-04-27T09:44:41.077Z,97699.00
2023-04-27T09:47:10.042Z,97687.63
2023-04-27T09:49:37.308Z,97692.53
2023-04-27T09:52:04.720Z,97699.91
2023-04-27T09:54:35.338Z,97689.06
2023-04-27T09:57:22.040Z,97704.47
2023-04-27T10:00:12.761Z,97699.97
2023-04-27T10:03:33.066Z,97706.09
2023-04-27T10:06:00.424Z,97688.38
2023-04-27T10:08:29.239Z,97683.16
2023-04-27T10:10:56.474Z,97684.44
2023-04-27T10:13:27.581Z,97675.59
2023-04-27T10:15:54.820Z,97670.19
2023-04-27T10:18:32.063Z,97676.75
2023-04-27T10:21:11.124Z,97674.28
2023-04-27T10:23:48.838Z,97670.97
2023-04-27T10:26:27.637Z,97669.22
2023-04-27T10:29:09.305Z,97680.81
2023-04-27T10:31:43.447Z,97681.59
2023-04-27T10:34:12.208Z,97682.56
2023-04-27T10:36:40.980Z,97678.81
2023-04-27T10:39:36.222Z,97673.00
2023-04-27T10:42:13.481Z,97681.03
2023-04-27T10:44:41.263Z,97682.75
2023-04-27T10:47:17.354Z,97680.59
2023-04-27T10:49:44.727Z,97676.38
2023-04-27T10:52:12.141Z,97674.44
2023-04-27T10:54:40.004Z,97672.91
2023-04-27T10:57:10.177Z,97678.63
2023-04-27T10:59:53.448Z,97677.88
2023-04-27T11:02:29.222Z,97674.25
2023-04-27T11:04:56.931Z,97681.03
2023-04-27T11:07:27.881Z,97683.94
2023-04-27T11:09:55.619Z,97683.16
2023-04-27T11:12:24.189Z,97683.22
2023-04-27T11:14:57.118Z,97682.66
2023-04-27T11:17:32.461Z,97689.78
2023-04-27T11:19:59.678Z,97684.25
2023-04-27T11:22:27.472Z,97682.66
2023-04-27T11:24:54.849Z,97685.81
2023-04-27T11:27:24.151Z,97680.19
2023-04-27T11:29:51.657Z,97681.34
2023-04-27T11:32:23.963Z,97685.38
2023-04-27T11:34:56.631Z,97689.41
2023-04-27T11:37:27.759Z,97684.00
2023-04-27T11:40:00.233Z,97679.63
2023-04-27T11:42:29.025Z,97695.47
2023-04-27T11:45:01.408Z,97685.97
2023-04-27T11:47:31.147Z,97682.97
2023-04-27T11:50:07.475Z,97683.81
2023-04-27T11:52:37.986Z,97687.50
2023-04-27T11:55:06.208Z,97690.75
2023-04-27T11:57:36.148Z,97690.84
2023-04-27T12:00:15.323Z,97687.63
2023-04-27T12:02:44.362Z,97677.97
2023-04-27T12:05:13.554Z,97672.69
2023-04-27T12:07:41.583Z,97674.97
2023-04-27T12:10:09.646Z,97669.38
2023-04-27T12:12:36.862Z,97662.66
2023-04-27T12:15:04.827Z,97667.78
2023-04-27T12:17:32.955Z,97658.53
2023-04-27T12:20:00.294Z,97662.78
2023-04-27T12:22:27.652Z,97667.91
2023-04-27T12:24:55.056Z,97664.94
2023-04-27T12:27:22.327Z,97662.81
2023-04-27T12:29:50.786Z,97669.06
2023-04-27T12:32:18.141Z,97657.88
2023-04-27T12:34:46.979Z,97658.06
2023-04-27T12:37:14.208Z,97660.97
2023-04-27T12:39:41.479Z,97664.75
2023-04-27T12:42:09.299Z,97661.38
2023-04-27T12:44:36.576Z,97653.25
2023-04-27T12:47:04.338Z,97660.06
2023-04-27T12:49:32.192Z,97655.84
2023-04-27T12:51:59.725Z,97655.97
2023-04-27T12:54:27.089Z,97653.09
2023-04-27T12:56:54.417Z,97650.88
2023-04-27T12:59:21.716Z,97655.84
2023-04-27T13:01:49.051Z,97649.31
2023-04-27T13:04:22.232Z,97653.81
2023-04-27T13:06:50.072Z,97655.41
2023-04-27T13:09:17.422Z,97647.56
2023-04-27T13:11:44.847Z,97651.09
2023-04-27T13:14:13.467Z,97654.63
2023-04-27T13:16:42.812Z,97649.41
2023-04-27T13:19:10.312Z,97656.75
2023-04-27T13:21:38.037Z,97650.09
2023-04-27T13:24:06.056Z,97646.13
2023-04-27T13:26:34.153Z,97647.72
2023-04-27T13:29:04.682Z,97637.09
2023-04-27T13:31:33.484Z,97638.34
2023-04-27T13:34:01.289Z,97648.03
2023-04-27T13:36:28.856Z,97641.84
2023-04-27T13:38:56.316Z,97648.66
2023-04-27T13:41:23.849Z,97655.22
2023-04-27T13:43:51.208Z,97654.38
2023-04-27T13:46:18.495Z,97649.03
2023-04-27T13:48:45.929Z,97658.47
2023-04-27T13:51:13.282Z,97655.81
2023-04-27T13:53:40.454Z,97658.19
2023-04-27T13:56:07.667Z,97651.78
2023-04-27T13:58:34.982Z,97658.47
2023-04-27T14:01:02.525Z,97658.94
2023-04-27T14:03:29.953Z,97666.84
2023-04-27T14:05:57.378Z,97661.06
2023-04-27T14:08:24.606Z,97658.19
2023-04-27T14:10:51.932Z,97665.16
2023-04-27T14:13:19.897Z,97665.47
2023-04-27T14:15:47.341Z,97668.41
2023-04-27T14:18:14.775Z,97671.97
2023-04-27T14:20:42.431Z,97667.66
2023-04-27T14:23:11.203Z,97669.16
2023-04-27T14:25:39.243Z,97669.03
2023-04-27T14:28:06.930Z,97671.28
2023-04-27T14:30:35.349Z,97660.41
2023-04-27T14:33:03.241Z,97670.63
2023-04-27T14:35:34.124Z,97672.81
2023-04-27T14:38:04.598Z,97666.84
2023-04-27T14:40:32.477Z,97662.81
2023-04-27T14:43:00.169Z,97665.69
2023-04-27T14:45:36.712Z,97663.53
2023-04-27T14:48:11.292Z,97667.84
2023-04-27T14:50:38.700Z,97672.88
2023-04-27T14:53:06.242Z,97669.66
2023-04-27T14:55:33.710Z,97677.19
2023-04-27T14:58:01.069Z,97675.72
2023-04-27T15:00:28.337Z,97670.59
2023-04-27T15:02:55.871Z,97670.25
2023-04-27T15:05:23.375Z,97669.03
2023-04-27T15:07:50.680Z,97674.84
2023-04-27T15:10:18.114Z,97679.13
2023-04-27T15:12:46.628Z,97678.28
2023-04-27T15:15:14.186Z,97681.41
2023-04-27T15:17:42.173Z,97681.34
2023-04-27T15:20:10.961Z,97687.75
2023-04-27T15:22:38.218Z,97691.72
2023-04-27T15:25:06.029Z,97682.50
2023-04-27T15:27:33.485Z,97689.81
2023-04-27T15:30:02.715Z,97685.94
2023-04-27T15:32:31.318Z,97686.34
2023-04-27T15:34:58.916Z,97682.69
2023-04-27T15:37:28.376Z,97678.25
2023-04-27T15:39:56.187Z,97681.84
2023-04-27T15:42:24.656Z,97676.31
2023-04-27T15:44:51.996Z,97673.53
2023-04-27T15:47:19.307Z,97684.06
2023-04-27T15:49:57.112Z,97680.84
2023-04-27T15:52:26.472Z,97681.81
2023-04-27T15:54:53.713Z,97675.84
2023-04-27T15:57:21.023Z,97682.34
2023-04-27T15:59:48.235Z,97674.69
2023-04-27T16:02:15.567Z,97676.09
2023-04-27T16:04:42.844Z,97672.00
2023-04-27T16:07:10.023Z,97680.66
2023-04-27T16:09:37.685Z,97667.72
2023-04-27T16:12:05.473Z,97668.31
2023-04-27T16:14:32.856Z,97674.22
2023-04-27T16:17:02.848Z,97668.19
2023-04-27T16:19:30.291Z,97675.91
2023-04-27T16:21:57.630Z,97677.63
2023-04-27T16:24:26.660Z,97675.88
2023-04-27T16:26:53.908Z,97672.25
2023-04-27T16:29:21.070Z,97678.09
2023-04-27T16:31:52.099Z,97667.56
2023-04-27T16:34:19.404Z,97674.69
2023-04-27T16:36:48.526Z,97672.81
2023-04-27T16:39:16.462Z,97682.63
2023-04-27T16:41:43.733Z,97678.16
2023-04-27T16:44:13.197Z,97673.91
2023-04-27T16:46:40.787Z,97679.69
2023-04-27T16:49:08.607Z,97678.63
2023-04-27T16:51:36.058Z,97678.06
2023-04-27T16:54:03.683Z,97686.78
2023-04-27T16:56:34.783Z,97684.34
2023-04-27T16:59:02.916Z,97678.78
2023-04-27T17:01:30.290Z,97679.59
2023-04-27T17:03:59.696Z,97677.72
2023-04-27T17:06:28.205Z,97676.94
2023-04-27T17:08:58.950Z,97680.94
2023-04-27T17:11:26.540Z,97685.19
2023-04-27T17:13:54.068Z,97686.59
2023-04-27T17:16:21.938Z,97682.59
2023-04-27T17:18:49.383Z,97686.31
2023-04-27T17:21:17.501Z,97685.00
2023-04-27T17:23:46.682Z,97678.94
2023-04-27T17:26:19.720Z,97680.00
2023-04-27T17:28:48.133Z,97691.13
2023-04-27T17:31:17.591Z,97687.41
2023-04-27T17:33:45.728Z,97688.22
2023-04-27T17:36:13.506Z,97694.31
2023-04-27T17:38:40.942Z,97686.38
2023-04-27T17:41:08.258Z,97692.72
2023-04-27T17:43:37.749Z,97696.16
2023-04-27T17:46:12.411Z,97697.97
2023-04-27T17:48:40.277Z,97701.41
2023-04-27T17:51:08.730Z,97703.44
2023-04-27T17:53:35.935Z,97702.56
2023-04-27T17:56:03.832Z,97705.94
2023-04-27T17:58:32.371Z,97702.44
2023-04-27T18:00:59.968Z,97705.81
2023-04-27T18:03:27.498Z,97703.94
2023-04-27T18:05:54.969Z,97705.94
2023-04-27T18:08:22.109Z,97698.50
2023-04-27T18:10:49.376Z,97700.53
2023-04-27T18:13:16.782Z,97701.03
2023-04-27T18:15:44.048Z,97700.44
2023-04-27T18:18:12.086Z,97706.41
2023-04-27T18:20:39.496Z,97707.59
2023-04-27T18:23:06.696Z,97711.16
2023-04-27T18:25:33.924Z,97710.75
2023-04-27T18:28:01.217Z,97707.69
2023-04-27T18:30:28.736Z,97713.56
2023-04-27T18:32:56.025Z,97715.34
2023-04-27T18:35:23.474Z,97718.16
2023-04-27T18:37:51.304Z,97718.59
2023-04-27T18:40:22.704Z,97717.19
2023-04-27T18:42:50.226Z,97720.25
2023-04-27T18:45:17.445Z,97718.84
2023-04-27T18:47:44.893Z,97723.63
2023-04-27T18:50:15.344Z,97723.81
2023-04-27T18:53:08.141Z,97719.03
2023-04-27T18:55:35.881Z,97722.38
2023-04-27T18:58:03.181Z,97718.88
2023-04-27T19:00:31.068Z,97714.50
2023-04-27T19:02:58.664Z,97717.75
2023-04-27T19:05:26.147Z,97719.03
2023-04-27T19:07:53.589Z,97719.31
2023-04-27T19:10:21.051Z,97725.09
2023-04-27T19:12:48.403Z,97723.38
2023-04-27T19:15:16.050Z,97722.47
2023-04-27T19:17:43.386Z,97714.44
2023-04-27T19:20:11.326Z,97723.44
2023-04-27T19:22:38.687Z,97722.78
2023-04-27T19:25:07.063Z,97725.19
2023-04-27T19:27:34.590Z,97720.66
2023-04-27T19:30:04.124Z,97729.56
2023-04-27T19:32:34.096Z,97722.94
2023-04-27T19:35:01.665Z,97729.97
2023-04-27T19:37:29.377Z,97737.44
2023-04-27T19:39:56.690Z,97730.69
2023-04-27T19:42:24.981Z,97731.78
2023-04-27T19:44:52.324Z,97726.34
2023-04-27T19:47:19.549Z,97730.91
2023-04-27T19:49:46.917Z,97739.59
2023-04-27T19:52:14.333Z,97732.00
2023-04-27T19:54:41.765Z,97732.78
2023-04-27T19:57:09.088Z,97734.28
2023-04-27T19:59:36.632Z,97738.03
2023-04-27T20:02:04.480Z,97734.84
2023-04-27T20:04:33.065Z,97736.22
2023-04-27T20:07:02.440Z,97738.84
2023-04-27T20:09:30.749Z,97731.34
2023-04-27T20:11:58.130Z,97735.31
2023-04-27T20:14:25.520Z,97736.69
2023-04-27T20:16:52.811Z,97735.69
2023-04-27T20:19:20.958Z,97737.81
2023-04-27T20:21:48.480Z,97747.06
2023-04-27T20:24:16.460Z,97752.09
2023-04-27T20:26:44.253Z,97753.91
2023-04-27T20:29:11.627Z,97749.81
2023-04-27T20:31:38.973Z,97757.56
2023-04-27T20:34:06.292Z,97762.16
2023-04-27T20:36:33.945Z,97752.09
2023-04-27T20:39:01.249Z,97759.75
2023-04-27T20:41:28.660Z,97759.16
2023-04-27T20:43:56.386Z,97765.31
2023-04-27T20:46:23.679Z,97764.03
2023-04-27T20:48:50.921Z,97760.63
2023-04-27T20:51:18.564Z,97759.03
2023-04-27T20:53:45.860Z,97758.13
2023-04-27T20:56:13.200Z,97759.84
2023-04-27T20:58:40.472Z,97762.34
2023-04-27T21:01:07.888Z,97756.16
2023-04-27T21:03:35.805Z,97765.81
2023-04-27T21:06:03.476Z,97756.81
2023-04-27T21:08:30.880Z,97765.78
2023-04-27T21:10:58.200Z,97764.41
2023-04-27T21:13:25.648Z,97762.16
2023-04-27T21:15:52.910Z,97760.19
2023-04-27T21:18:29.902Z,97766.81
2023-04-27T21:20:58.464Z,97764.00
2023-04-27T21:23:25.814Z,97758.22
2023-04-27T21:25:53.207Z,97755.47
2023-04-27T21:28:21.622Z,97760.53
2023-04-27T21:30:48.907Z,97762.94
2023-04-27T21:33:16.256Z,97763.63
2023-04-27T21:35:43.468Z,97759.69
2023-04-27T21:38:10.735Z,97761.72
2023-04-27T21:40:38.007Z,97768.78
2023-04-27T21:43:07.819Z,97771.28
2023-04-27T21:45:36.024Z,97768.28
2023-04-27T21:48:03.539Z,97771.56
2023-04-27T21:50:30.881Z,97771.78
2023-04-27T21:52:58.154Z,97771.91
2023-04-27T21:55:25.571Z,97770.75
2023-04-27T21:57:52.830Z,97771.72
2023-04-27T22:00:20.185Z,97772.53
2023-04-27T22:02:48.558Z,97768.94
2023-04-27T22:05:16.435Z,97770.91
2023-04-27T22:07:46.014Z,97770.13
2023-04-27T22:10:13.382Z,97773.44
2023-04-27T22:12:40.641Z,97770.09
2023-04-27T22:15:08.719Z,97769.75
2023-04-27T22:17:36.076Z,97769.38
2023-04-27T22:20:05.074Z,97760.38
2023-04-27T22:22:32.355Z,97765.28
2023-04-27T22:24:59.681Z,97768.69
2023-04-27T22:27:35.143Z,97766.50
2023-04-27T22:30:07.031Z,97770.34
2023-04-27T22:32:34.288Z,97770.81
2023-04-27T22:35:02.049Z,97764.41
2023-04-27T22:37:29.770Z,97768.25
2023-04-27T22:39:57.216Z,97761.19
2023-04-27T22:42:24.641Z,97763.16
2023-04-27T22:44:51.834Z,97762.56
2023-04-27T22:47:19.363Z,97759.59
2023-04-27T22:49:46.906Z,97760.09
2023-04-27T22:52:14.304Z,97760.09
2023-04-27T22:54:41.465Z,97763.59
2023-04-27T22:57:08.728Z,97763.28
2023-04-27T22:59:36.047Z,97760.34
2023-04-27T23:02:03.598Z,97760.19
2023-04-27T23:04:31.106Z,97752.41
2023-04-27T23:06:58.933Z,97760.66
2023-04-27T23:09:27.066Z,97761.47
2023-04-27T23:11:54.902Z,97761.25
2023-04-27T23:14:22.697Z,97761.69
2023-04-27T23:16:49.958Z,97755.44
2023-04-27T23:19:17.296Z,97760.28
2023-04-27T23:21:44.648Z,97753.47
2023-04-27T23:24:11.909Z,97750.19
2023-04-27T23:26:39.147Z,97754.03
2023-04-27T23:29:06.407Z,97754.91
2023-04-27T23:31:33.707Z,97751.69
2023-04-27T23:34:01.235Z,97746.75
2023-04-27T23:36:28.512Z,97753.97
2023-04-27T23:38:56.094Z,97747.72
2023-04-27T23:41:23.460Z,97740.50
2023-04-27T23:43:50.734Z,97744.88
2023-04-27T23:46:18.026Z,97743.06
2023-04-27T23:48:46.151Z,97742.34
2023-04-27T23:51:13.407Z,97740.81
2023-04-27T23:53:40.780Z,97738.63
2023-04-27T23:56:17.472Z,97734.41
2023-04-27T23:58:45.430Z,97733.19
